Flight Track Log - Related Links

Times and Time Zones

All times are in EDT time to prevent confusion due to time zone crossing. See the WIS101 flight status page for this flight to view local times or setup timezone preferences in your user account.

Time Position Orientation Groundspeed Altitude Reporting Facility
EDT Latitude Longitude Course Direction KTS MPH feet Rate Location/Type
10:30AM 46.8486 -100.7033 345° North 132 152 4,500  Level Minneapolis Center
10:31AM 46.8842 -100.7186 344° North 131 151 5,100 581 Climbing Minneapolis Center
10:32AM 46.9217 -100.7328 346° North 135 155 5,700 435 Climbing Minneapolis Center
10:33AM 46.9369 -100.7256 343° North  Level FlightAware Approximate
10:33AM 46.9589 -100.7497 343° North 138 159 6,000  Level Minneapolis Center
10:34AM 46.9776 -100.7437 343° North  Level FlightAware Approximate
10:34AM 46.9994 -100.7717 340° North 149 171 6,100  Level Minneapolis Center
10:35AM 47.0403 -100.7992 335° Northwest 148 170 6,000 -48 Descending Minneapolis Center
10:36AM 47.0775 -100.8189 340° North 141 162 6,000 49 Level Minneapolis Center
10:37AM 47.1069 -100.8331 342° North 141 162 6,100 49 Climbing Minneapolis Center
10:38AM 47.1556 -100.8494 347° North 143 165 6,100  Level Minneapolis Center
10:39AM 47.1961 -100.8633 347° North 146 168 6,100  Level Minneapolis Center
10:40AM 47.2367 -100.8756 348° North 146 168 6,100  Level Minneapolis Center
10:41AM 47.2806 -100.8836 353° North 145 167 6,100  Level Minneapolis Center
10:42AM 47.3214 -100.8958 349° North 147 169 6,100  Level Minneapolis Center
10:43AM 47.3619 -100.9111 346° North 147 169 6,100  Level Minneapolis Center
10:44AM 47.4025 -100.9247 347° North 146 168 6,100  Level Minneapolis Center
10:45AM 47.4417 -100.9408 344° North 149 171 6,100  Level Minneapolis Center
10:47AM 47.4966 -100.9633 349° North  Level FlightAware Approximate
10:54AM 47.7837 -101.0792 344° North  Level FlightAware Approximate
10:55AM 47.8245 -101.0970 344° North  Level FlightAware Approximate
10:56AM 47.8653 -101.1149 344° North  Level FlightAware Approximate
10:57AM 47.9062 -101.1328 344° North  Level FlightAware Approximate
10:58AM 47.9470 -101.1507 344° North  Level FlightAware Approximate
10:59AM 47.9878 -101.1689 342° North  Level FlightAware Approximate
11:00AM 48.0287 -101.1833 North  Level FlightAware Approximate
11:01AM 48.0599 -101.2033 347° North  Level FlightAware Approximate
11:02AM 48.1014 -101.2171 347° North  Level FlightAware Approximate
11:03AM 48.1429 -101.2309 347° North  Level FlightAware Approximate
11:04AM 48.1845 -101.2448 347° North  Level FlightAware Approximate
11:05AM 48.2260 -101.2586 347° North  Level FlightAware Approximate
11:06AM 48.2500 -101.2667 347° North  Level FlightAware Approximate
11:07AM 48.2576 -101.2780 347° North  Level Estimated
11:08AM 48.2576 -101.2780 347° North  Level Estimated
11:09AM 48.2576 -101.2780 347° North  Level Estimated
11:10AM 48.2576 -101.2780 347° North  Level Estimated

Login

Don't have an account? Register now (free) for customized features, flight alerts, and more!